createdAt,value
2022-08-03T00:01:29.315Z,2.45
2022-08-03T00:03:56.798Z,2.53
2022-08-03T00:06:24.253Z,2.70
2022-08-03T00:08:53.094Z,2.70
2022-08-03T00:11:20.636Z,2.25
2022-08-03T00:13:48.644Z,2.47
2022-08-03T00:16:16.247Z,2.50
2022-08-03T00:18:44.063Z,2.40
2022-08-03T00:21:11.523Z,2.33
2022-08-03T00:23:51.437Z,2.20
2022-08-03T00:26:21.947Z,2.47
2022-08-03T00:28:49.636Z,2.35
2022-08-03T00:31:23.067Z,2.40
2022-08-03T00:34:05.185Z,2.40
2022-08-03T00:36:33.636Z,2.20
2022-08-03T00:39:01.124Z,2.30
2022-08-03T00:41:29.949Z,2.35
2022-08-03T00:43:57.421Z,2.33
2022-08-03T00:46:24.870Z,2.17
2022-08-03T00:48:52.915Z,2.67
2022-08-03T00:51:21.698Z,2.50
2022-08-03T00:53:49.787Z,2.40
2022-08-03T00:56:18.172Z,2.53
2022-08-03T00:58:48.010Z,2.00
2022-08-03T01:01:16.049Z,2.30
2022-08-03T01:03:45.204Z,2.70
2022-08-03T01:06:18.847Z,2.33
2022-08-03T01:08:53.311Z,2.30
2022-08-03T01:11:32.865Z,2.23
2022-08-03T01:14:18.373Z,2.60
2022-08-03T01:16:54.565Z,2.55
2022-08-03T01:19:45.021Z,2.15
2022-08-03T01:22:31.197Z,2.40
2022-08-03T01:25:06.914Z,2.70
2022-08-03T01:27:52.373Z,2.40
2022-08-03T01:30:21.877Z,2.40
2022-08-03T01:33:01.353Z,2.47
2022-08-03T01:35:35.479Z,2.45
2022-08-03T01:38:10.846Z,2.47
2022-08-03T01:40:41.079Z,2.40
2022-08-03T01:43:11.959Z,2.58
2022-08-03T01:45:41.176Z,2.47
2022-08-03T01:48:10.340Z,2.53
2022-08-03T01:50:38.364Z,2.43
2022-08-03T01:53:07.786Z,2.30
2022-08-03T01:55:37.166Z,2.60
2022-08-03T01:58:07.814Z,2.33
2022-08-03T02:00:37.851Z,2.30
2022-08-03T02:03:09.499Z,2.70
2022-08-03T02:05:39.568Z,2.53
2022-08-03T02:08:09.893Z,2.40
2022-08-03T02:10:38.655Z,2.22
2022-08-03T02:13:08.264Z,2.25
2022-08-03T02:15:37.976Z,2.77
2022-08-03T02:18:08.752Z,2.15
2022-08-03T02:20:38.826Z,2.53
2022-08-03T02:23:07.172Z,2.53
2022-08-03T02:25:37.031Z,2.42
2022-08-03T02:28:09.745Z,2.40
2022-08-03T02:30:39.376Z,2.28
2022-08-03T02:33:13.103Z,2.30
2022-08-03T02:35:41.448Z,2.47
2022-08-03T02:38:11.354Z,2.50
2022-08-03T02:40:41.620Z,2.63
2022-08-03T02:43:12.836Z,2.55
2022-08-03T02:45:49.050Z,2.92
2022-08-03T02:48:22.570Z,2.65
2022-08-03T02:50:52.564Z,2.65
2022-08-03T02:53:21.144Z,2.67
2022-08-03T02:55:50.968Z,2.60
2022-08-03T02:58:21.115Z,2.88
2022-08-03T03:00:49.865Z,2.80
2022-08-03T03:03:19.826Z,2.65
2022-08-03T03:05:52.044Z,2.53
2022-08-03T03:08:25.892Z,2.25
2022-08-03T03:10:57.121Z,2.88
2022-08-03T03:13:26.077Z,2.58
2022-08-03T03:15:55.362Z,2.78
2022-08-03T03:18:26.057Z,2.60
2022-08-03T03:20:54.891Z,2.53
2022-08-03T03:23:26.403Z,2.42
2022-08-03T03:25:55.905Z,2.42
2022-08-03T03:28:24.367Z,2.47
2022-08-03T03:30:53.467Z,2.23
2022-08-03T03:33:21.919Z,2.05
2022-08-03T03:35:51.695Z,2.28
2022-08-03T03:38:19.826Z,2.42
2022-08-03T03:40:47.821Z,2.10
2022-08-03T03:43:15.357Z,2.50
2022-08-03T03:45:43.152Z,2.30
2022-08-03T03:48:10.937Z,2.20
2022-08-03T03:50:40.762Z,2.17
2022-08-03T03:53:12.524Z,2.20
2022-08-03T03:55:59.674Z,1.77
2022-08-03T03:58:28.636Z,2.53
2022-08-03T04:00:56.126Z,2.17
2022-08-03T04:03:23.653Z,2.25
2022-08-03T04:06:08.738Z,2.45
2022-08-03T04:08:55.417Z,2.50
2022-08-03T04:11:30.224Z,2.35
2022-08-03T04:14:04.493Z,2.35
2022-08-03T04:16:35.643Z,2.67
2022-08-03T04:19:06.281Z,2.22
2022-08-03T04:21:36.370Z,2.47
2022-08-03T04:24:09.388Z,2.13
2022-08-03T04:26:40.836Z,2.20
2022-08-03T04:29:10.406Z,2.28
2022-08-03T04:31:39.921Z,2.30
2022-08-03T04:34:08.527Z,2.00
2022-08-03T04:36:40.856Z,2.08
2022-08-03T04:39:14.458Z,2.03
2022-08-03T04:42:02.184Z,2.00
2022-08-03T04:44:35.803Z,2.40
2022-08-03T04:47:03.476Z,2.23
2022-08-03T04:49:31.841Z,2.38
2022-08-03T04:51:59.561Z,2.40
2022-08-03T04:54:28.355Z,2.17
2022-08-03T04:56:55.804Z,2.65
2022-08-03T04:59:26.592Z,2.20
2022-08-03T05:01:54.116Z,2.30
2022-08-03T05:04:22.967Z,2.17
2022-08-03T05:06:54.864Z,2.08
2022-08-03T05:09:50.005Z,2.28
2022-08-03T05:12:12.084Z,2.03
2022-08-03T05:14:39.655Z,2.30
2022-08-03T05:17:07.333Z,2.10
2022-08-03T05:19:34.856Z,1.83
2022-08-03T05:22:03.158Z,2.22
2022-08-03T05:24:30.600Z,2.10
2022-08-03T05:26:58.162Z,2.22
2022-08-03T05:29:26.945Z,2.10
2022-08-03T05:31:54.440Z,2.22
2022-08-03T05:34:21.879Z,2.17
2022-08-03T05:36:49.347Z,2.10
2022-08-03T05:39:16.799Z,2.20
2022-08-03T05:41:44.246Z,1.98
2022-08-03T05:44:11.707Z,1.90
2022-08-03T05:46:40.491Z,1.90
2022-08-03T05:49:08.097Z,1.80
2022-08-03T05:51:37.032Z,1.60
2022-08-03T05:54:04.636Z,1.98
2022-08-03T05:56:32.271Z,1.80
2022-08-03T05:59:07.353Z,1.80
2022-08-03T06:01:48.726Z,1.50
2022-08-03T06:04:16.247Z,1.70
2022-08-03T06:06:44.103Z,1.70
2022-08-03T06:09:11.707Z,1.80
2022-08-03T06:11:39.308Z,1.38
2022-08-03T06:14:07.180Z,1.50
2022-08-03T06:16:35.368Z,1.48
2022-08-03T06:19:04.241Z,1.30
2022-08-03T06:21:31.874Z,1.38
2022-08-03T06:23:59.311Z,1.80
2022-08-03T06:26:30.002Z,1.57
2022-08-03T06:28:57.479Z,1.35
2022-08-03T06:31:33.288Z,1.38
2022-08-03T06:34:34.351Z,1.60
2022-08-03T06:36:52.421Z,1.40
2022-08-03T06:39:20.418Z,1.63
2022-08-03T06:41:47.873Z,1.83
2022-08-03T06:44:15.362Z,1.40
2022-08-03T06:46:43.256Z,1.40
2022-08-03T06:49:12.176Z,1.50
2022-08-03T06:52:05.249Z,1.47
2022-08-03T06:54:27.051Z,1.40
2022-08-03T06:56:55.223Z,1.70
2022-08-03T07:00:09.141Z,1.63
2022-08-03T07:02:11.455Z,1.67
2022-08-03T07:04:40.376Z,1.30
2022-08-03T07:07:07.818Z,1.50
2022-08-03T07:09:35.264Z,1.50
2022-08-03T07:12:04.201Z,1.48
2022-08-03T07:14:31.639Z,1.50
2022-08-03T07:16:59.095Z,1.33
2022-08-03T07:19:26.798Z,1.10
2022-08-03T07:21:56.218Z,1.50
2022-08-03T07:24:29.613Z,1.50
2022-08-03T07:26:57.089Z,1.60
2022-08-03T07:29:24.949Z,1.50
2022-08-03T07:31:52.377Z,1.50
2022-08-03T07:34:19.893Z,1.58
2022-08-03T07:36:47.650Z,1.40
2022-08-03T07:39:17.997Z,1.27
2022-08-03T07:41:45.832Z,1.10
2022-08-03T07:44:13.324Z,1.50
2022-08-03T07:46:40.779Z,1.33
2022-08-03T07:49:09.670Z,1.17
2022-08-03T07:51:37.577Z,1.40
2022-08-03T07:54:05.181Z,1.37
2022-08-03T07:56:34.327Z,1.40
2022-08-03T07:59:02.830Z,1.35
2022-08-03T08:01:32.732Z,1.40
2022-08-03T08:04:00.331Z,1.40
2022-08-03T08:06:27.784Z,1.37
2022-08-03T08:08:59.445Z,1.42
2022-08-03T08:11:26.920Z,1.45
2022-08-03T08:13:55.731Z,1.30
2022-08-03T08:16:23.228Z,1.55
2022-08-03T08:18:50.720Z,1.50
2022-08-03T08:21:18.232Z,1.80
2022-08-03T08:23:49.474Z,1.42
2022-08-03T08:26:24.540Z,1.55
2022-08-03T08:28:52.709Z,1.40
2022-08-03T08:31:21.618Z,1.30
2022-08-03T08:34:03.721Z,1.30
2022-08-03T08:36:31.858Z,1.40
2022-08-03T08:38:59.396Z,1.48
2022-08-03T08:41:32.177Z,2.13
2022-08-03T08:44:00.486Z,1.43
2022-08-03T08:46:33.188Z,1.20
2022-08-03T08:49:04.503Z,1.70
2022-08-03T08:51:50.931Z,1.40
2022-08-03T08:54:26.096Z,1.23
2022-08-03T08:56:57.055Z,1.30
2022-08-03T08:59:25.799Z,1.10
2022-08-03T09:01:58.047Z,1.35
2022-08-03T09:04:26.028Z,1.27
2022-08-03T09:07:17.716Z,1.60
2022-08-03T09:10:11.672Z,1.17
2022-08-03T09:12:41.625Z,1.50
2022-08-03T09:15:22.126Z,1.60
2022-08-03T09:17:52.544Z,1.20
2022-08-03T09:20:21.511Z,1.60
2022-08-03T09:22:59.871Z,1.20
2022-08-03T09:25:29.511Z,1.50
2022-08-03T09:28:05.782Z,1.20
2022-08-03T09:30:35.091Z,1.45
2022-08-03T09:33:05.624Z,1.38
2022-08-03T09:35:53.028Z,1.47
2022-08-03T09:38:23.963Z,1.00
2022-08-03T09:40:53.797Z,1.45
2022-08-03T09:43:25.854Z,1.10
2022-08-03T09:46:03.849Z,1.27
2022-08-03T09:48:34.750Z,1.10
2022-08-03T09:51:14.370Z,1.25
2022-08-03T09:53:58.758Z,1.20
2022-08-03T09:56:39.574Z,1.15
2022-08-03T09:59:07.146Z,1.42
2022-08-03T10:01:35.137Z,0.93
2022-08-03T10:04:05.250Z,1.33
2022-08-03T10:06:33.123Z,1.05
2022-08-03T10:09:08.714Z,0.98
2022-08-03T10:11:41.158Z,1.10
2022-08-03T10:14:11.174Z,1.27
2022-08-03T10:16:40.534Z,1.55
2022-08-03T10:19:10.541Z,1.38
2022-08-03T10:21:40.065Z,1.30
2022-08-03T10:24:09.467Z,1.20
2022-08-03T10:26:39.880Z,1.33
2022-08-03T10:29:24.492Z,1.30
2022-08-03T10:31:57.772Z,1.10
2022-08-03T10:34:30.038Z,1.20
2022-08-03T10:37:00.094Z,1.20
2022-08-03T10:39:30.133Z,1.23
2022-08-03T10:41:58.841Z,1.30
2022-08-03T10:44:34.109Z,1.15
2022-08-03T10:47:01.972Z,1.27
2022-08-03T10:49:34.573Z,1.30
2022-08-03T10:52:13.132Z,1.10
2022-08-03T10:55:10.742Z,1.20
2022-08-03T10:57:56.172Z,1.25
2022-08-03T11:00:28.077Z,1.30
2022-08-03T11:03:16.559Z,1.02
2022-08-03T11:05:46.568Z,0.83
2022-08-03T11:08:26.457Z,1.20
2022-08-03T11:10:56.036Z,1.50
2022-08-03T11:13:26.121Z,1.08
2022-08-03T11:16:01.665Z,1.23
2022-08-03T11:18:30.894Z,1.47
2022-08-03T11:21:00.967Z,1.55
2022-08-03T11:24:04.913Z,1.30
2022-08-03T11:26:31.596Z,1.45
2022-08-03T11:29:31.496Z,1.20
2022-08-03T11:31:59.052Z,1.30
2022-08-03T11:34:27.063Z,1.52
2022-08-03T11:37:21.772Z,1.25
2022-08-03T11:39:52.915Z,1.23
2022-08-03T11:42:41.573Z,1.13
2022-08-03T11:45:13.253Z,1.10
2022-08-03T11:47:51.022Z,1.13
2022-08-03T11:50:20.031Z,1.20
2022-08-03T11:52:48.712Z,1.08
2022-08-03T11:55:20.221Z,1.10
2022-08-03T11:59:01.582Z,1.20
2022-08-03T12:00:37.024Z,1.38
2022-08-03T12:03:07.362Z,1.25
2022-08-03T12:05:39.958Z,1.30
2022-08-03T12:08:09.825Z,1.10
2022-08-03T12:10:38.852Z,1.27
2022-08-03T12:14:43.925Z,1.23
2022-08-03T12:15:59.203Z,1.40
2022-08-03T12:18:26.794Z,1.13
2022-08-03T12:21:04.217Z,1.13
2022-08-03T12:23:35.988Z,1.03
2022-08-03T12:26:06.927Z,1.38
2022-08-03T12:28:37.905Z,1.20
2022-08-03T12:31:09.174Z,1.08
2022-08-03T12:33:59.457Z,1.20
2022-08-03T12:36:29.566Z,1.17
2022-08-03T12:38:59.290Z,1.00
2022-08-03T12:41:31.803Z,1.10
2022-08-03T12:43:59.471Z,1.20
2022-08-03T12:46:33.678Z,1.20
2022-08-03T12:49:09.654Z,0.83
2022-08-03T12:51:39.271Z,1.30
2022-08-03T12:54:07.220Z,1.38
2022-08-03T12:56:34.696Z,1.20
2022-08-03T12:59:02.265Z,1.17
2022-08-03T13:01:38.712Z,1.20
2022-08-03T13:04:33.662Z,0.90
2022-08-03T13:07:03.432Z,1.20
2022-08-03T13:09:33.048Z,1.00
2022-08-03T13:12:11.447Z,1.08
2022-08-03T13:14:39.200Z,1.00
2022-08-03T13:17:08.270Z,1.30
2022-08-03T13:19:36.611Z,1.35
2022-08-03T13:22:12.105Z,1.10
2022-08-03T13:24:39.657Z,1.00
2022-08-03T13:28:01.404Z,1.10
2022-08-03T13:29:55.216Z,1.20
2022-08-03T13:32:24.245Z,1.30
2022-08-03T13:34:51.917Z,1.20
2022-08-03T13:37:19.374Z,1.20
2022-08-03T13:39:58.150Z,1.03
2022-08-03T13:42:28.295Z,1.10
2022-08-03T13:44:55.853Z,1.10
2022-08-03T13:47:24.727Z,0.98
2022-08-03T13:49:54.210Z,1.02
2022-08-03T13:52:29.784Z,1.00
2022-08-03T13:54:57.254Z,1.08
2022-08-03T13:58:02.872Z,1.23
2022-08-03T14:00:26.137Z,1.38
2022-08-03T14:03:03.793Z,1.30
2022-08-03T14:05:32.571Z,1.20
2022-08-03T14:08:04.161Z,1.25
2022-08-03T14:10:32.543Z,1.02
2022-08-03T14:13:00.704Z,1.10
2022-08-03T14:15:28.909Z,1.13
2022-08-03T14:17:58.680Z,1.20
2022-08-03T14:20:36.741Z,1.17
2022-08-03T14:23:06.639Z,1.10
2022-08-03T14:25:43.439Z,1.30
2022-08-03T14:28:18.732Z,1.48
2022-08-03T14:30:46.471Z,1.20
2022-08-03T14:33:15.332Z,1.20
2022-08-03T14:35:42.883Z,1.27
2022-08-03T14:38:10.332Z,1.38
2022-08-03T14:40:37.779Z,1.40
2022-08-03T14:43:05.613Z,1.00
2022-08-03T14:45:34.152Z,1.17
2022-08-03T14:50:28.573Z,1.50
2022-08-03T14:50:51.939Z,1.20
2022-08-03T14:53:19.766Z,1.08
2022-08-03T14:55:50.784Z,1.20
2022-08-03T14:58:20.826Z,1.05
2022-08-03T15:00:48.879Z,1.30
2022-08-03T15:03:17.001Z,1.20
2022-08-03T15:05:45.125Z,1.35
2022-08-03T15:08:13.920Z,1.37
2022-08-03T15:10:44.936Z,1.30
2022-08-03T15:13:13.301Z,1.10
2022-08-03T15:15:41.256Z,1.23
2022-08-03T15:18:08.966Z,1.23
2022-08-03T15:20:44.408Z,1.00
2022-08-03T15:23:15.081Z,1.20
2022-08-03T15:26:28.121Z,1.10
2022-08-03T15:28:30.380Z,1.10
2022-08-03T15:30:57.990Z,1.00
2022-08-03T15:33:25.470Z,1.13
2022-08-03T15:35:52.949Z,1.20
2022-08-03T15:38:22.878Z,1.60
2022-08-03T15:40:54.325Z,1.40
2022-08-03T15:43:22.430Z,1.10
2022-08-03T15:45:54.583Z,1.20
2022-08-03T15:48:37.339Z,1.35
2022-08-03T15:51:06.107Z,1.35
2022-08-03T15:53:35.643Z,1.17
2022-08-03T15:56:09.697Z,1.20
2022-08-03T15:59:04.043Z,1.37
2022-08-03T16:01:27.128Z,1.17
2022-08-03T16:03:54.594Z,1.30
2022-08-03T16:06:29.772Z,1.20
2022-08-03T16:09:05.667Z,1.40
2022-08-03T16:11:52.039Z,1.23
2022-08-03T16:14:32.281Z,1.42
2022-08-03T16:17:03.211Z,1.23
2022-08-03T16:19:30.657Z,1.02
2022-08-03T16:21:58.098Z,1.25
2022-08-03T16:24:27.734Z,1.40
2022-08-03T16:26:55.745Z,1.35
2022-08-03T16:29:23.800Z,1.15
2022-08-03T16:31:52.298Z,1.30
2022-08-03T16:34:20.968Z,1.30
2022-08-03T16:36:48.497Z,1.60
2022-08-03T16:39:16.095Z,1.20
2022-08-03T16:41:54.436Z,1.20
2022-08-03T16:44:30.302Z,1.20
2022-08-03T16:46:57.868Z,1.20
2022-08-03T16:49:54.908Z,1.27
2022-08-03T16:52:13.171Z,1.10
2022-08-03T16:54:40.919Z,1.40
2022-08-03T16:57:09.786Z,1.10
2022-08-03T16:59:39.376Z,1.65
2022-08-03T17:02:10.549Z,1.10
2022-08-03T17:04:40.355Z,1.30
2022-08-03T17:07:09.150Z,1.17
2022-08-03T17:09:38.552Z,1.40
2022-08-03T17:12:07.397Z,1.50
2022-08-03T17:14:40.249Z,1.83
2022-08-03T17:17:16.346Z,1.40
2022-08-03T17:19:47.466Z,1.92
2022-08-03T17:22:27.151Z,1.30
2022-08-03T17:24:58.628Z,1.80
2022-08-03T17:28:51.370Z,1.40
2022-08-03T17:30:18.907Z,1.50
2022-08-03T17:32:57.187Z,1.08
2022-08-03T17:35:36.471Z,1.38
2022-08-03T17:38:12.130Z,1.30
2022-08-03T17:40:48.265Z,1.37
2022-08-03T17:44:13.938Z,1.42
2022-08-03T17:46:10.801Z,1.30
2022-08-03T17:48:42.660Z,1.40
2022-08-03T17:51:17.237Z,1.20
2022-08-03T17:53:50.474Z,0.93
2022-08-03T17:56:44.395Z,1.10
2022-08-03T18:02:47.486Z,1.27
2022-08-03T18:05:18.434Z,1.40
2022-08-03T18:07:59.219Z,4.83
2022-08-03T18:10:34.748Z,2.60
2022-08-03T18:13:10.531Z,1.98
2022-08-03T18:15:43.458Z,1.05
2022-08-03T18:18:16.682Z,1.45
2022-08-03T18:20:57.758Z,1.20
2022-08-03T18:23:36.662Z,1.33
2022-08-03T18:26:07.644Z,1.33
2022-08-03T18:28:40.591Z,1.38
2022-08-03T18:31:11.717Z,1.30
2022-08-03T18:34:17.260Z,1.43
2022-08-03T18:36:31.100Z,1.40
2022-08-03T18:39:02.429Z,1.33
2022-08-03T18:41:32.555Z,1.35
2022-08-03T18:44:09.098Z,1.30
2022-08-03T18:47:07.435Z,3.20
2022-08-03T18:49:53.945Z,3.83
2022-08-03T18:52:27.678Z,1.70
2022-08-03T18:55:13.993Z,1.20
2022-08-03T18:57:53.078Z,1.35
2022-08-03T19:00:24.527Z,1.13
2022-08-03T19:03:12.372Z,1.20
2022-08-03T19:08:48.736Z,1.23
2022-08-03T19:11:28.013Z,1.38
2022-08-03T19:13:57.713Z,1.30
2022-08-03T19:16:32.585Z,1.63
2022-08-03T19:19:02.385Z,1.27
2022-08-03T19:21:34.392Z,1.60
2022-08-03T19:24:05.561Z,1.25
2022-08-03T19:26:38.353Z,1.10
2022-08-03T19:29:14.732Z,1.27
2022-08-03T19:31:59.039Z,1.60
2022-08-03T19:34:29.622Z,1.52
2022-08-03T19:36:59.244Z,1.40
2022-08-03T19:39:27.431Z,1.30
2022-08-03T19:42:08.211Z,1.50
2022-08-03T19:44:45.142Z,1.40
2022-08-03T19:47:19.935Z,1.38
2022-08-03T19:50:05.379Z,1.30
2022-08-03T19:52:42.217Z,1.23
2022-08-03T19:55:12.408Z,1.23
2022-08-03T19:57:43.229Z,1.50
2022-08-03T20:00:12.657Z,1.00
2022-08-03T20:02:42.150Z,1.35
2022-08-03T20:05:11.941Z,1.50
2022-08-03T20:07:47.982Z,1.50
2022-08-03T20:10:17.223Z,1.60
2022-08-03T20:12:45.175Z,1.23
2022-08-03T20:15:13.170Z,1.40
2022-08-03T20:17:56.126Z,1.50
2022-08-03T20:20:27.670Z,1.38
2022-08-03T20:22:58.475Z,1.40
2022-08-03T20:25:38.439Z,1.60
2022-08-03T20:28:13.562Z,2.10
2022-08-03T20:30:44.184Z,1.80
2022-08-03T20:33:12.417Z,1.30
2022-08-03T20:35:49.227Z,1.77
2022-08-03T20:38:19.382Z,1.70
2022-08-03T20:40:47.929Z,4.75
2022-08-03T20:43:15.414Z,2.33
2022-08-03T20:46:01.044Z,2.95
2022-08-03T20:48:31.607Z,4.50
2022-08-03T20:50:59.348Z,2.30
2022-08-03T20:53:57.002Z,2.40
2022-08-03T20:56:16.478Z,3.03
2022-08-03T20:58:50.657Z,2.40
2022-08-03T21:01:27.661Z,1.95
2022-08-03T21:04:06.964Z,1.90
2022-08-03T21:06:41.051Z,4.05
2022-08-03T21:09:19.979Z,4.03
2022-08-03T21:11:50.594Z,2.60
2022-08-03T21:13:01.363Z,1.60
2022-08-03T21:13:04.378Z,1.38
2022-08-03T21:14:21.096Z,2.22
2022-08-03T21:16:51.456Z,1.90
2022-08-03T21:19:21.226Z,2.38
2022-08-03T21:21:50.201Z,1.60
2022-08-03T21:24:22.708Z,1.65
2022-08-03T21:26:54.502Z,1.60
2022-08-03T21:29:22.270Z,1.85
2022-08-03T21:31:50.419Z,1.60
2022-08-03T21:34:18.439Z,1.53
2022-08-03T21:36:46.103Z,1.67
2022-08-03T21:39:13.897Z,1.60
2022-08-03T21:41:42.905Z,2.90
2022-08-03T21:44:10.505Z,3.65
2022-08-03T21:46:40.115Z,1.80
2022-08-03T21:50:06.954Z,1.67
2022-08-03T21:51:59.062Z,1.50
2022-08-03T21:54:34.826Z,1.52
2022-08-03T21:57:06.814Z,1.40
2022-08-03T21:59:37.842Z,1.27
2022-08-03T22:02:07.386Z,1.55
2022-08-03T22:04:55.308Z,2.00
2022-08-03T22:07:24.511Z,2.08
2022-08-03T22:09:53.046Z,1.88
2022-08-03T22:12:24.886Z,1.90
2022-08-03T22:15:01.204Z,1.60
2022-08-03T22:17:55.060Z,2.30
2022-08-03T22:20:19.325Z,1.58
2022-08-03T22:22:55.675Z,1.40
2022-08-03T22:25:28.598Z,1.50
2022-08-03T22:27:58.661Z,1.67
2022-08-03T22:30:26.372Z,1.80
2022-08-03T22:32:56.018Z,1.70
2022-08-03T22:35:25.581Z,1.95
2022-08-03T22:37:54.906Z,1.73
2022-08-03T22:40:22.768Z,1.83
2022-08-03T22:42:52.353Z,1.50
2022-08-03T22:46:06.227Z,1.48
2022-08-03T22:48:09.449Z,1.77
2022-08-03T22:50:36.970Z,1.80
2022-08-03T22:53:04.612Z,1.52
2022-08-03T22:55:32.315Z,1.80
2022-08-03T22:57:59.786Z,1.52
2022-08-03T23:00:28.583Z,1.30
2022-08-03T23:02:58.959Z,1.40
2022-08-03T23:06:00.771Z,1.40
2022-08-03T23:08:19.740Z,1.17
2022-08-03T23:10:48.447Z,1.83
2022-08-03T23:13:17.937Z,1.40
2022-08-03T23:15:52.097Z,1.80
2022-08-03T23:18:21.731Z,1.67
2022-08-03T23:20:51.170Z,1.80
2022-08-03T23:23:20.640Z,1.80
2022-08-03T23:25:50.252Z,1.70
2022-08-03T23:28:18.173Z,1.57
2022-08-03T23:30:47.537Z,1.30
2022-08-03T23:33:15.895Z,1.50
2022-08-03T23:36:29.114Z,1.33
2022-08-03T23:38:45.866Z,1.70
2022-08-03T23:41:14.304Z,1.70
2022-08-03T23:43:50.737Z,1.70
2022-08-03T23:46:22.480Z,1.92
2022-08-03T23:48:50.860Z,1.50
2022-08-03T23:51:24.407Z,1.77
2022-08-03T23:54:00.045Z,1.70
2022-08-03T23:56:37.919Z,1.77
2022-08-03T23:59:12.333Z,1.50
